sensor_id;sensor_type;location;lat;lon;timestamp;P1;durP1;ratioP1;P2;durP2;ratioP2
15616;SDS011;7908;51.688;7.130;2023-08-08T00:00:49;3.93;;;3.30;;
15616;SDS011;7908;51.688;7.130;2023-08-08T00:03:19;5.10;;;2.93;;
15616;SDS011;7908;51.688;7.130;2023-08-08T00:05:49;3.13;;;2.17;;
15616;SDS011;7908;51.688;7.130;2023-08-08T00:08:18;6.80;;;3.43;;
15616;SDS011;7908;51.688;7.130;2023-08-08T00:10:48;5.20;;;3.30;;
15616;SDS011;7908;51.688;7.130;2023-08-08T00:13:17;5.43;;;2.93;;
15616;SDS011;7908;51.688;7.130;2023-08-08T00:15:45;4.80;;;3.20;;
15616;SDS011;7908;51.688;7.130;2023-08-08T00:18:15;3.63;;;2.73;;
15616;SDS011;7908;51.688;7.130;2023-08-08T00:20:47;5.10;;;2.90;;
15616;SDS011;7908;51.688;7.130;2023-08-08T00:23:16;6.17;;;3.10;;
15616;SDS011;7908;51.688;7.130;2023-08-08T00:25:44;4.20;;;3.27;;
15616;SDS011;7908;51.688;7.130;2023-08-08T00:28:17;3.40;;;3.10;;
15616;SDS011;7908;51.688;7.130;2023-08-08T00:30:47;5.73;;;3.10;;
15616;SDS011;7908;51.688;7.130;2023-08-08T00:33:15;5.37;;;3.40;;
15616;SDS011;7908;51.688;7.130;2023-08-08T00:35:44;6.23;;;3.67;;
15616;SDS011;7908;51.688;7.130;2023-08-08T00:38:13;6.17;;;3.50;;
15616;SDS011;7908;51.688;7.130;2023-08-08T00:40:43;5.53;;;3.50;;
15616;SDS011;7908;51.688;7.130;2023-08-08T00:43:13;4.83;;;3.70;;
15616;SDS011;7908;51.688;7.130;2023-08-08T00:45:43;6.17;;;3.77;;
15616;SDS011;7908;51.688;7.130;2023-08-08T00:48:13;6.87;;;4.07;;
15616;SDS011;7908;51.688;7.130;2023-08-08T00:50:42;5.03;;;3.83;;
15616;SDS011;7908;51.688;7.130;2023-08-08T00:53:11;6.63;;;4.07;;
15616;SDS011;7908;51.688;7.130;2023-08-08T00:55:40;4.33;;;3.93;;
15616;SDS011;7908;51.688;7.130;2023-08-08T00:58:09;5.63;;;3.80;;
15616;SDS011;7908;51.688;7.130;2023-08-08T01:00:38;7.13;;;4.00;;
15616;SDS011;7908;51.688;7.130;2023-08-08T01:03:10;9.77;;;4.17;;
15616;SDS011;7908;51.688;7.130;2023-08-08T01:05:41;7.27;;;3.70;;
15616;SDS011;7908;51.688;7.130;2023-08-08T01:08:16;4.67;;;3.10;;
15616;SDS011;7908;51.688;7.130;2023-08-08T01:10:49;6.83;;;3.40;;
15616;SDS011;7908;51.688;7.130;2023-08-08T01:13:21;7.10;;;3.30;;
15616;SDS011;7908;51.688;7.130;2023-08-08T01:15:53;6.73;;;3.43;;
15616;SDS011;7908;51.688;7.130;2023-08-08T01:18:24;4.87;;;3.20;;
15616;SDS011;7908;51.688;7.130;2023-08-08T01:20:55;6.30;;;3.33;;
15616;SDS011;7908;51.688;7.130;2023-08-08T01:23:26;3.97;;;3.33;;
15616;SDS011;7908;51.688;7.130;2023-08-08T01:26:02;6.20;;;3.17;;
15616;SDS011;7908;51.688;7.130;2023-08-08T01:28:30;4.33;;;3.10;;
15616;SDS011;7908;51.688;7.130;2023-08-08T01:30:59;3.17;;;2.30;;
15616;SDS011;7908;51.688;7.130;2023-08-08T01:33:28;5.00;;;3.13;;
15616;SDS011;7908;51.688;7.130;2023-08-08T01:35:58;6.50;;;3.73;;
15616;SDS011;7908;51.688;7.130;2023-08-08T01:38:31;6.67;;;3.50;;
15616;SDS011;7908;51.688;7.130;2023-08-08T01:41:05;6.33;;;3.27;;
15616;SDS011;7908;51.688;7.130;2023-08-08T01:43:35;5.57;;;3.20;;
15616;SDS011;7908;51.688;7.130;2023-08-08T01:46:06;4.47;;;3.70;;
15616;SDS011;7908;51.688;7.130;2023-08-08T01:48:36;6.27;;;3.47;;
15616;SDS011;7908;51.688;7.130;2023-08-08T01:51:05;4.80;;;3.17;;
15616;SDS011;7908;51.688;7.130;2023-08-08T01:53:36;5.90;;;3.10;;
15616;SDS011;7908;51.688;7.130;2023-08-08T01:56:06;4.70;;;3.27;;
15616;SDS011;7908;51.688;7.130;2023-08-08T01:58:36;7.57;;;3.30;;
15616;SDS011;7908;51.688;7.130;2023-08-08T02:01:06;6.00;;;3.30;;
15616;SDS011;7908;51.688;7.130;2023-08-08T02:03:36;5.20;;;2.60;;
15616;SDS011;7908;51.688;7.130;2023-08-08T02:06:05;6.83;;;2.97;;
15616;SDS011;7908;51.688;7.130;2023-08-08T02:08:34;6.57;;;3.00;;
15616;SDS011;7908;51.688;7.130;2023-08-08T02:11:01;5.23;;;2.50;;
15616;SDS011;7908;51.688;7.130;2023-08-08T02:13:32;4.40;;;2.80;;
15616;SDS011;7908;51.688;7.130;2023-08-08T02:16:01;6.83;;;3.40;;
15616;SDS011;7908;51.688;7.130;2023-08-08T02:18:30;6.40;;;2.90;;
15616;SDS011;7908;51.688;7.130;2023-08-08T02:20:59;5.37;;;3.17;;
15616;SDS011;7908;51.688;7.130;2023-08-08T02:23:28;5.37;;;2.80;;
15616;SDS011;7908;51.688;7.130;2023-08-08T02:25:58;4.70;;;3.03;;
15616;SDS011;7908;51.688;7.130;2023-08-08T02:28:30;6.50;;;3.63;;
15616;SDS011;7908;51.688;7.130;2023-08-08T02:31:00;6.23;;;3.13;;
15616;SDS011;7908;51.688;7.130;2023-08-08T02:33:30;4.17;;;2.83;;
15616;SDS011;7908;51.688;7.130;2023-08-08T02:35:58;4.83;;;3.00;;
15616;SDS011;7908;51.688;7.130;2023-08-08T02:38:27;5.50;;;2.80;;
15616;SDS011;7908;51.688;7.130;2023-08-08T02:40:56;4.13;;;2.53;;
15616;SDS011;7908;51.688;7.130;2023-08-08T02:43:26;4.40;;;2.60;;
15616;SDS011;7908;51.688;7.130;2023-08-08T02:45:56;4.73;;;2.50;;
15616;SDS011;7908;51.688;7.130;2023-08-08T02:48:25;4.53;;;2.30;;
15616;SDS011;7908;51.688;7.130;2023-08-08T02:50:54;4.50;;;2.80;;
15616;SDS011;7908;51.688;7.130;2023-08-08T02:53:22;2.83;;;2.30;;
15616;SDS011;7908;51.688;7.130;2023-08-08T02:55:52;4.23;;;2.60;;
15616;SDS011;7908;51.688;7.130;2023-08-08T02:58:22;4.90;;;2.53;;
15616;SDS011;7908;51.688;7.130;2023-08-08T03:00:53;5.10;;;2.60;;
15616;SDS011;7908;51.688;7.130;2023-08-08T03:03:23;2.77;;;2.50;;
15616;SDS011;7908;51.688;7.130;2023-08-08T03:05:52;8.77;;;3.03;;
15616;SDS011;7908;51.688;7.130;2023-08-08T03:08:21;5.07;;;2.70;;
15616;SDS011;7908;51.688;7.130;2023-08-08T03:10:50;4.77;;;2.60;;
15616;SDS011;7908;51.688;7.130;2023-08-08T03:13:19;3.80;;;3.03;;
15616;SDS011;7908;51.688;7.130;2023-08-08T03:15:49;7.47;;;3.00;;
15616;SDS011;7908;51.688;7.130;2023-08-08T03:18:18;6.83;;;3.13;;
15616;SDS011;7908;51.688;7.130;2023-08-08T03:20:50;7.47;;;2.97;;
15616;SDS011;7908;51.688;7.130;2023-08-08T03:23:19;4.87;;;3.07;;
15616;SDS011;7908;51.688;7.130;2023-08-08T03:25:50;5.73;;;3.13;;
15616;SDS011;7908;51.688;7.130;2023-08-08T03:28:18;6.47;;;3.00;;
15616;SDS011;7908;51.688;7.130;2023-08-08T03:30:47;4.83;;;2.40;;
15616;SDS011;7908;51.688;7.130;2023-08-08T03:33:16;7.27;;;2.90;;
15616;SDS011;7908;51.688;7.130;2023-08-08T03:35:46;7.73;;;3.40;;
15616;SDS011;7908;51.688;7.130;2023-08-08T03:38:16;8.33;;;4.50;;
15616;SDS011;7908;51.688;7.130;2023-08-08T03:40:45;8.67;;;4.10;;
15616;SDS011;7908;51.688;7.130;2023-08-08T03:43:13;7.63;;;3.77;;
15616;SDS011;7908;51.688;7.130;2023-08-08T03:45:42;10.77;;;3.70;;
15616;SDS011;7908;51.688;7.130;2023-08-08T03:48:12;6.10;;;4.00;;
15616;SDS011;7908;51.688;7.130;2023-08-08T03:50:41;7.93;;;4.27;;
15616;SDS011;7908;51.688;7.130;2023-08-08T03:53:10;6.83;;;4.40;;
15616;SDS011;7908;51.688;7.130;2023-08-08T03:55:41;7.90;;;4.43;;
15616;SDS011;7908;51.688;7.130;2023-08-08T03:58:10;8.80;;;4.13;;
15616;SDS011;7908;51.688;7.130;2023-08-08T04:00:39;8.80;;;4.47;;
15616;SDS011;7908;51.688;7.130;2023-08-08T04:03:13;9.23;;;4.70;;
15616;SDS011;7908;51.688;7.130;2023-08-08T04:05:43;8.00;;;4.27;;
15616;SDS011;7908;51.688;7.130;2023-08-08T04:08:15;6.20;;;4.50;;
15616;SDS011;7908;51.688;7.130;2023-08-08T04:10:50;8.43;;;4.90;;
15616;SDS011;7908;51.688;7.130;2023-08-08T04:13:18;6.87;;;4.73;;
15616;SDS011;7908;51.688;7.130;2023-08-08T04:15:49;8.53;;;4.20;;
15616;SDS011;7908;51.688;7.130;2023-08-08T04:18:20;10.90;;;5.30;;
15616;SDS011;7908;51.688;7.130;2023-08-08T04:20:48;8.57;;;5.20;;
15616;SDS011;7908;51.688;7.130;2023-08-08T04:23:17;9.80;;;4.93;;
15616;SDS011;7908;51.688;7.130;2023-08-08T04:25:46;8.13;;;4.93;;
15616;SDS011;7908;51.688;7.130;2023-08-08T04:28:16;8.27;;;5.23;;
15616;SDS011;7908;51.688;7.130;2023-08-08T04:30:47;12.90;;;6.40;;
15616;SDS011;7908;51.688;7.130;2023-08-08T04:33:16;14.40;;;6.10;;
15616;SDS011;7908;51.688;7.130;2023-08-08T04:35:45;11.00;;;6.23;;
15616;SDS011;7908;51.688;7.130;2023-08-08T04:38:17;10.97;;;6.60;;
15616;SDS011;7908;51.688;7.130;2023-08-08T04:40:46;14.03;;;6.50;;
15616;SDS011;7908;51.688;7.130;2023-08-08T04:43:16;12.10;;;6.83;;
15616;SDS011;7908;51.688;7.130;2023-08-08T04:45:44;9.37;;;6.33;;
15616;SDS011;7908;51.688;7.130;2023-08-08T04:48:13;11.20;;;6.80;;
15616;SDS011;7908;51.688;7.130;2023-08-08T04:50:41;10.53;;;6.40;;
15616;SDS011;7908;51.688;7.130;2023-08-08T04:53:11;8.10;;;6.20;;
15616;SDS011;7908;51.688;7.130;2023-08-08T04:55:40;10.97;;;6.60;;
15616;SDS011;7908;51.688;7.130;2023-08-08T04:58:09;8.57;;;5.53;;
15616;SDS011;7908;51.688;7.130;2023-08-08T05:00:42;12.43;;;6.37;;
15616;SDS011;7908;51.688;7.130;2023-08-08T05:03:13;10.17;;;6.17;;
15616;SDS011;7908;51.688;7.130;2023-08-08T05:05:45;9.57;;;6.07;;
15616;SDS011;7908;51.688;7.130;2023-08-08T05:08:14;11.37;;;6.10;;
15616;SDS011;7908;51.688;7.130;2023-08-08T05:10:43;12.33;;;6.50;;
15616;SDS011;7908;51.688;7.130;2023-08-08T05:13:12;9.20;;;6.57;;
15616;SDS011;7908;51.688;7.130;2023-08-08T05:15:43;8.73;;;6.00;;
15616;SDS011;7908;51.688;7.130;2023-08-08T05:18:12;11.13;;;6.10;;
15616;SDS011;7908;51.688;7.130;2023-08-08T05:20:40;8.80;;;5.93;;
15616;SDS011;7908;51.688;7.130;2023-08-08T05:23:09;10.30;;;6.10;;
15616;SDS011;7908;51.688;7.130;2023-08-08T05:25:38;7.87;;;6.00;;
15616;SDS011;7908;51.688;7.130;2023-08-08T05:28:08;13.67;;;6.93;;
15616;SDS011;7908;51.688;7.130;2023-08-08T05:30:37;9.73;;;6.10;;
15616;SDS011;7908;51.688;7.130;2023-08-08T05:33:07;11.33;;;6.93;;
15616;SDS011;7908;51.688;7.130;2023-08-08T05:35:36;14.57;;;8.40;;
15616;SDS011;7908;51.688;7.130;2023-08-08T05:38:05;8.13;;;6.90;;
15616;SDS011;7908;51.688;7.130;2023-08-08T05:40:36;11.40;;;7.27;;
15616;SDS011;7908;51.688;7.130;2023-08-08T05:43:05;11.90;;;7.60;;
15616;SDS011;7908;51.688;7.130;2023-08-08T05:45:36;11.73;;;7.80;;
15616;SDS011;7908;51.688;7.130;2023-08-08T05:48:05;13.60;;;7.80;;
15616;SDS011;7908;51.688;7.130;2023-08-08T05:50:41;15.67;;;7.63;;
15616;SDS011;7908;51.688;7.130;2023-08-08T05:53:09;13.70;;;8.03;;
15616;SDS011;7908;51.688;7.130;2023-08-08T05:55:40;13.27;;;8.50;;
15616;SDS011;7908;51.688;7.130;2023-08-08T05:58:10;17.10;;;9.33;;
15616;SDS011;7908;51.688;7.130;2023-08-08T06:00:40;13.40;;;8.03;;
15616;SDS011;7908;51.688;7.130;2023-08-08T06:03:10;12.27;;;8.23;;
15616;SDS011;7908;51.688;7.130;2023-08-08T06:05:40;14.00;;;8.60;;
15616;SDS011;7908;51.688;7.130;2023-08-08T06:08:10;12.77;;;8.67;;
15616;SDS011;7908;51.688;7.130;2023-08-08T06:10:41;12.87;;;8.37;;
15616;SDS011;7908;51.688;7.130;2023-08-08T06:13:10;13.33;;;8.93;;
15616;SDS011;7908;51.688;7.130;2023-08-08T06:15:39;18.13;;;9.90;;
15616;SDS011;7908;51.688;7.130;2023-08-08T06:18:13;12.23;;;8.80;;
15616;SDS011;7908;51.688;7.130;2023-08-08T06:20:45;15.93;;;9.07;;
15616;SDS011;7908;51.688;7.130;2023-08-08T06:23:14;13.67;;;9.43;;
15616;SDS011;7908;51.688;7.130;2023-08-08T06:25:44;14.17;;;9.60;;
15616;SDS011;7908;51.688;7.130;2023-08-08T06:28:14;16.07;;;9.93;;
15616;SDS011;7908;51.688;7.130;2023-08-08T06:30:43;13.30;;;8.60;;
15616;SDS011;7908;51.688;7.130;2023-08-08T06:33:18;13.47;;;10.30;;
15616;SDS011;7908;51.688;7.130;2023-08-08T06:35:49;14.17;;;10.20;;
15616;SDS011;7908;51.688;7.130;2023-08-08T06:38:19;13.20;;;9.13;;
15616;SDS011;7908;51.688;7.130;2023-08-08T06:40:50;15.23;;;9.60;;
15616;SDS011;7908;51.688;7.130;2023-08-08T06:43:19;14.20;;;8.90;;
15616;SDS011;7908;51.688;7.130;2023-08-08T06:45:50;14.67;;;9.27;;
15616;SDS011;7908;51.688;7.130;2023-08-08T06:48:20;14.20;;;9.60;;
15616;SDS011;7908;51.688;7.130;2023-08-08T06:50:49;13.30;;;9.13;;
15616;SDS011;7908;51.688;7.130;2023-08-08T06:53:20;13.23;;;8.77;;
15616;SDS011;7908;51.688;7.130;2023-08-08T06:55:49;13.23;;;8.37;;
15616;SDS011;7908;51.688;7.130;2023-08-08T06:58:21;13.33;;;8.53;;
15616;SDS011;7908;51.688;7.130;2023-08-08T07:00:50;12.43;;;7.57;;
15616;SDS011;7908;51.688;7.130;2023-08-08T07:03:23;10.47;;;7.20;;
15616;SDS011;7908;51.688;7.130;2023-08-08T07:05:53;11.33;;;7.37;;
15616;SDS011;7908;51.688;7.130;2023-08-08T07:08:22;9.80;;;6.40;;
15616;SDS011;7908;51.688;7.130;2023-08-08T07:10:51;14.17;;;7.53;;
15616;SDS011;7908;51.688;7.130;2023-08-08T07:13:22;15.13;;;8.13;;
15616;SDS011;7908;51.688;7.130;2023-08-08T07:15:53;9.97;;;7.80;;
15616;SDS011;7908;51.688;7.130;2023-08-08T07:18:24;15.87;;;8.63;;
15616;SDS011;7908;51.688;7.130;2023-08-08T07:20:52;12.67;;;7.73;;
15616;SDS011;7908;51.688;7.130;2023-08-08T07:23:23;14.77;;;8.17;;
15616;SDS011;7908;51.688;7.130;2023-08-08T07:25:52;12.97;;;7.60;;
15616;SDS011;7908;51.688;7.130;2023-08-08T07:28:21;12.80;;;6.90;;
15616;SDS011;7908;51.688;7.130;2023-08-08T07:30:50;12.03;;;7.23;;
15616;SDS011;7908;51.688;7.130;2023-08-08T07:33:19;11.40;;;6.73;;
15616;SDS011;7908;51.688;7.130;2023-08-08T07:35:49;11.97;;;6.17;;
15616;SDS011;7908;51.688;7.130;2023-08-08T07:38:18;9.60;;;6.07;;
15616;SDS011;7908;51.688;7.130;2023-08-08T07:40:51;11.10;;;6.13;;
15616;SDS011;7908;51.688;7.130;2023-08-08T07:43:20;10.37;;;5.30;;
15616;SDS011;7908;51.688;7.130;2023-08-08T07:45:53;12.03;;;6.10;;
15616;SDS011;7908;51.688;7.130;2023-08-08T07:48:22;10.03;;;5.77;;
15616;SDS011;7908;51.688;7.130;2023-08-08T07:50:56;10.17;;;5.17;;
15616;SDS011;7908;51.688;7.130;2023-08-08T07:53:25;9.40;;;5.40;;
15616;SDS011;7908;51.688;7.130;2023-08-08T07:55:54;11.47;;;5.47;;
15616;SDS011;7908;51.688;7.130;2023-08-08T07:58:26;10.93;;;5.90;;
15616;SDS011;7908;51.688;7.130;2023-08-08T08:00:57;9.97;;;5.27;;
15616;SDS011;7908;51.688;7.130;2023-08-08T08:03:27;16.00;;;5.40;;
15616;SDS011;7908;51.688;7.130;2023-08-08T08:05:59;8.87;;;4.83;;
15616;SDS011;7908;51.688;7.130;2023-08-08T08:08:30;15.27;;;5.43;;
15616;SDS011;7908;51.688;7.130;2023-08-08T08:11:03;12.10;;;4.70;;
15616;SDS011;7908;51.688;7.130;2023-08-08T08:13:33;8.37;;;4.53;;
15616;SDS011;7908;51.688;7.130;2023-08-08T08:16:05;7.97;;;4.60;;
15616;SDS011;7908;51.688;7.130;2023-08-08T08:18:35;8.40;;;4.30;;
15616;SDS011;7908;51.688;7.130;2023-08-08T08:21:06;8.63;;;3.80;;
15616;SDS011;7908;51.688;7.130;2023-08-08T08:23:36;6.53;;;3.23;;
15616;SDS011;7908;51.688;7.130;2023-08-08T08:26:06;10.67;;;3.40;;
15616;SDS011;7908;51.688;7.130;2023-08-08T08:28:36;5.30;;;3.07;;
15616;SDS011;7908;51.688;7.130;2023-08-08T08:31:11;9.30;;;3.50;;
15616;SDS011;7908;51.688;7.130;2023-08-08T08:33:42;9.10;;;3.33;;
15616;SDS011;7908;51.688;7.130;2023-08-08T08:36:14;5.73;;;3.20;;
15616;SDS011;7908;51.688;7.130;2023-08-08T08:38:44;6.50;;;3.37;;
15616;SDS011;7908;51.688;7.130;2023-08-08T08:41:18;5.37;;;3.07;;
15616;SDS011;7908;51.688;7.130;2023-08-08T08:43:50;6.20;;;2.70;;
15616;SDS011;7908;51.688;7.130;2023-08-08T08:46:20;7.80;;;3.03;;
15616;SDS011;7908;51.688;7.130;2023-08-08T08:48:55;5.53;;;2.30;;
15616;SDS011;7908;51.688;7.130;2023-08-08T08:51:34;3.97;;;2.07;;
15616;SDS011;7908;51.688;7.130;2023-08-08T08:54:04;4.07;;;1.77;;
15616;SDS011;7908;51.688;7.130;2023-08-08T08:56:37;9.07;;;2.07;;
15616;SDS011;7908;51.688;7.130;2023-08-08T08:59:09;6.70;;;2.10;;
15616;SDS011;7908;51.688;7.130;2023-08-08T09:01:38;6.70;;;2.27;;
15616;SDS011;7908;51.688;7.130;2023-08-08T09:04:08;5.47;;;2.20;;
15616;SDS011;7908;51.688;7.130;2023-08-08T09:06:39;6.43;;;1.97;;
15616;SDS011;7908;51.688;7.130;2023-08-08T09:09:10;4.07;;;1.80;;
15616;SDS011;7908;51.688;7.130;2023-08-08T09:11:43;5.57;;;2.37;;
15616;SDS011;7908;51.688;7.130;2023-08-08T09:14:17;7.10;;;2.20;;
15616;SDS011;7908;51.688;7.130;2023-08-08T09:16:50;3.43;;;1.90;;
15616;SDS011;7908;51.688;7.130;2023-08-08T09:19:21;6.40;;;2.00;;
15616;SDS011;7908;51.688;7.130;2023-08-08T09:21:53;3.93;;;1.50;;
15616;SDS011;7908;51.688;7.130;2023-08-08T09:24:25;4.60;;;1.50;;
15616;SDS011;7908;51.688;7.130;2023-08-08T09:26:55;4.07;;;2.00;;
15616;SDS011;7908;51.688;7.130;2023-08-08T09:29:26;5.13;;;2.40;;
15616;SDS011;7908;51.688;7.130;2023-08-08T09:31:55;7.50;;;2.40;;
15616;SDS011;7908;51.688;7.130;2023-08-08T09:34:25;6.33;;;2.00;;
15616;SDS011;7908;51.688;7.130;2023-08-08T09:37:01;11.23;;;2.13;;
15616;SDS011;7908;51.688;7.130;2023-08-08T09:39:32;4.00;;;1.90;;
15616;SDS011;7908;51.688;7.130;2023-08-08T09:42:05;3.73;;;1.70;;
15616;SDS011;7908;51.688;7.130;2023-08-08T09:44:38;5.50;;;2.00;;
15616;SDS011;7908;51.688;7.130;2023-08-08T09:47:12;5.83;;;1.60;;
15616;SDS011;7908;51.688;7.130;2023-08-08T09:49:41;4.27;;;1.50;;
15616;SDS011;7908;51.688;7.130;2023-08-08T09:52:16;7.50;;;2.07;;
15616;SDS011;7908;51.688;7.130;2023-08-08T09:54:48;4.53;;;1.97;;
15616;SDS011;7908;51.688;7.130;2023-08-08T09:57:18;4.40;;;1.57;;
15616;SDS011;7908;51.688;7.130;2023-08-08T09:59:54;2.77;;;1.20;;
15616;SDS011;7908;51.688;7.130;2023-08-08T10:02:27;4.13;;;1.60;;
15616;SDS011;7908;51.688;7.130;2023-08-08T10:04:58;7.37;;;1.23;;
15616;SDS011;7908;51.688;7.130;2023-08-08T10:07:34;3.70;;;1.30;;
15616;SDS011;7908;51.688;7.130;2023-08-08T10:10:07;3.70;;;1.37;;
15616;SDS011;7908;51.688;7.130;2023-08-08T10:12:43;5.13;;;1.60;;
15616;SDS011;7908;51.688;7.130;2023-08-08T10:15:13;3.80;;;1.30;;
15616;SDS011;7908;51.688;7.130;2023-08-08T10:17:43;2.93;;;1.03;;
15616;SDS011;7908;51.688;7.130;2023-08-08T10:20:19;3.13;;;1.17;;
15616;SDS011;7908;51.688;7.130;2023-08-08T10:22:53;4.73;;;1.27;;
15616;SDS011;7908;51.688;7.130;2023-08-08T10:25:26;2.57;;;1.40;;
15616;SDS011;7908;51.688;7.130;2023-08-08T10:28:02;3.13;;;1.60;;
15616;SDS011;7908;51.688;7.130;2023-08-08T10:30:55;2.53;;;1.27;;
15616;SDS011;7908;51.688;7.130;2023-08-08T10:33:39;2.37;;;1.27;;
15616;SDS011;7908;51.688;7.130;2023-08-08T10:36:15;3.67;;;1.40;;
15616;SDS011;7908;51.688;7.130;2023-08-08T10:38:48;3.20;;;1.37;;
15616;SDS011;7908;51.688;7.130;2023-08-08T10:41:25;4.43;;;1.40;;
15616;SDS011;7908;51.688;7.130;2023-08-08T10:44:08;3.55;;;1.30;;
15616;SDS011;7908;51.688;7.130;2023-08-08T10:46:41;1.95;;;1.15;;
15616;SDS011;7908;51.688;7.130;2023-08-08T10:49:12;2.22;;;1.17;;
15616;SDS011;7908;51.688;7.130;2023-08-08T10:51:44;2.67;;;1.15;;
15616;SDS011;7908;51.688;7.130;2023-08-08T10:54:17;4.93;;;1.13;;
15616;SDS011;7908;51.688;7.130;2023-08-08T10:56:49;3.03;;;1.08;;
15616;SDS011;7908;51.688;7.130;2023-08-08T10:59:20;2.95;;;1.40;;
15616;SDS011;7908;51.688;7.130;2023-08-08T11:01:57;3.50;;;1.10;;
15616;SDS011;7908;51.688;7.130;2023-08-08T11:04:36;4.47;;;1.67;;
15616;SDS011;7908;51.688;7.130;2023-08-08T11:07:15;4.05;;;1.48;;
15616;SDS011;7908;51.688;7.130;2023-08-08T11:09:48;3.70;;;1.38;;
15616;SDS011;7908;51.688;7.130;2023-08-08T11:12:21;2.40;;;1.23;;
15616;SDS011;7908;51.688;7.130;2023-08-08T11:14:53;4.43;;;1.42;;
15616;SDS011;7908;51.688;7.130;2023-08-08T11:17:25;2.08;;;1.17;;
15616;SDS011;7908;51.688;7.130;2023-08-08T11:22:57;2.80;;;1.27;;
15616;SDS011;7908;51.688;7.130;2023-08-08T11:25:43;6.15;;;1.40;;
15616;SDS011;7908;51.688;7.130;2023-08-08T11:28:37;2.00;;;1.30;;
15616;SDS011;7908;51.688;7.130;2023-08-08T11:31:21;3.58;;;1.25;;
15616;SDS011;7908;51.688;7.130;2023-08-08T11:33:58;2.60;;;1.30;;
15616;SDS011;7908;51.688;7.130;2023-08-08T11:36:45;3.67;;;1.40;;
15616;SDS011;7908;51.688;7.130;2023-08-08T11:39:21;3.10;;;1.25;;
15616;SDS011;7908;51.688;7.130;2023-08-08T11:41:57;3.20;;;1.43;;
15616;SDS011;7908;51.688;7.130;2023-08-08T11:44:28;4.47;;;1.47;;
15616;SDS011;7908;51.688;7.130;2023-08-08T11:47:02;4.90;;;1.57;;
15616;SDS011;7908;51.688;7.130;2023-08-08T11:49:38;2.23;;;1.10;;
15616;SDS011;7908;51.688;7.130;2023-08-08T11:52:12;3.73;;;1.20;;
15616;SDS011;7908;51.688;7.130;2023-08-08T11:54:42;5.63;;;1.20;;
15616;SDS011;7908;51.688;7.130;2023-08-08T11:57:23;4.97;;;1.50;;
15616;SDS011;7908;51.688;7.130;2023-08-08T12:00:01;4.17;;;1.53;;
15616;SDS011;7908;51.688;7.130;2023-08-08T12:02:35;3.80;;;1.37;;
15616;SDS011;7908;51.688;7.130;2023-08-08T12:05:15;5.30;;;1.50;;
15616;SDS011;7908;51.688;7.130;2023-08-08T12:07:54;5.40;;;1.60;;
15616;SDS011;7908;51.688;7.130;2023-08-08T12:10:39;2.38;;;1.30;;
15616;SDS011;7908;51.688;7.130;2023-08-08T12:13:36;3.75;;;1.60;;
15616;SDS011;7908;51.688;7.130;2023-08-08T12:16:12;3.35;;;1.17;;
15616;SDS011;7908;51.688;7.130;2023-08-08T12:18:48;9.15;;;1.67;;
15616;SDS011;7908;51.688;7.130;2023-08-08T12:21:21;4.30;;;1.23;;
15616;SDS011;7908;51.688;7.130;2023-08-08T12:23:53;2.90;;;1.50;;
15616;SDS011;7908;51.688;7.130;2023-08-08T12:26:29;4.78;;;1.73;;
15616;SDS011;7908;51.688;7.130;2023-08-08T12:29:08;4.85;;;1.50;;
15616;SDS011;7908;51.688;7.130;2023-08-08T12:31:46;3.30;;;1.30;;
15616;SDS011;7908;51.688;7.130;2023-08-08T12:34:19;2.78;;;1.30;;
15616;SDS011;7908;51.688;7.130;2023-08-08T12:37:00;2.67;;;1.02;;
15616;SDS011;7908;51.688;7.130;2023-08-08T12:39:30;3.42;;;1.42;;
15616;SDS011;7908;51.688;7.130;2023-08-08T12:42:07;2.80;;;1.50;;
15616;SDS011;7908;51.688;7.130;2023-08-08T12:44:45;2.17;;;1.10;;
15616;SDS011;7908;51.688;7.130;2023-08-08T12:47:27;5.40;;;1.10;;
15616;SDS011;7908;51.688;7.130;2023-08-08T12:50:28;3.97;;;1.23;;
15616;SDS011;7908;51.688;7.130;2023-08-08T12:53:05;1.48;;;1.10;;
15616;SDS011;7908;51.688;7.130;2023-08-08T12:55:36;4.75;;;1.40;;
15616;SDS011;7908;51.688;7.130;2023-08-08T12:58:09;3.60;;;1.40;;
15616;SDS011;7908;51.688;7.130;2023-08-08T13:00:45;4.47;;;1.33;;
15616;SDS011;7908;51.688;7.130;2023-08-08T13:03:20;2.67;;;1.00;;
15616;SDS011;7908;51.688;7.130;2023-08-08T13:05:50;1.80;;;1.20;;
15616;SDS011;7908;51.688;7.130;2023-08-08T13:08:33;2.50;;;1.02;;
15616;SDS011;7908;51.688;7.130;2023-08-08T13:11:07;3.00;;;1.40;;
15616;SDS011;7908;51.688;7.130;2023-08-08T13:13:53;3.75;;;1.63;;
15616;SDS011;7908;51.688;7.130;2023-08-08T13:19:30;6.25;;;1.23;;
15616;SDS011;7908;51.688;7.130;2023-08-08T13:22:09;4.28;;;1.23;;
15616;SDS011;7908;51.688;7.130;2023-08-08T13:24:44;4.30;;;1.17;;
15616;SDS011;7908;51.688;7.130;2023-08-08T13:27:20;2.40;;;1.20;;
15616;SDS011;7908;51.688;7.130;2023-08-08T13:29:54;2.35;;;1.20;;
15616;SDS011;7908;51.688;7.130;2023-08-08T13:32:26;2.28;;;1.20;;
15616;SDS011;7908;51.688;7.130;2023-08-08T13:35:00;1.67;;;1.25;;
15616;SDS011;7908;51.688;7.130;2023-08-08T13:37:39;2.85;;;1.23;;
15616;SDS011;7908;51.688;7.130;2023-08-08T13:40:16;2.17;;;1.35;;
15616;SDS011;7908;51.688;7.130;2023-08-08T13:42:48;2.70;;;1.40;;
15616;SDS011;7908;51.688;7.130;2023-08-08T13:45:19;4.38;;;1.23;;
15616;SDS011;7908;51.688;7.130;2023-08-08T13:47:51;2.42;;;1.13;;
15616;SDS011;7908;51.688;7.130;2023-08-08T13:50:22;3.95;;;1.30;;
15616;SDS011;7908;51.688;7.130;2023-08-08T13:52:54;1.95;;;1.27;;
15616;SDS011;7908;51.688;7.130;2023-08-08T13:55:27;2.45;;;1.40;;
15616;SDS011;7908;51.688;7.130;2023-08-08T13:58:02;3.85;;;1.10;;
15616;SDS011;7908;51.688;7.130;2023-08-08T14:00:40;2.60;;;1.10;;
15616;SDS011;7908;51.688;7.130;2023-08-08T14:03:46;3.17;;;1.33;;
15616;SDS011;7908;51.688;7.130;2023-08-08T14:06:16;1.60;;;1.10;;
15616;SDS011;7908;51.688;7.130;2023-08-08T14:08:48;3.35;;;1.60;;
15616;SDS011;7908;51.688;7.130;2023-08-08T14:11:33;3.20;;;1.42;;
15616;SDS011;7908;51.688;7.130;2023-08-08T14:14:03;5.80;;;1.63;;
15616;SDS011;7908;51.688;7.130;2023-08-08T14:16:37;5.93;;;1.58;;
15616;SDS011;7908;51.688;7.130;2023-08-08T14:19:12;4.93;;;1.45;;
15616;SDS011;7908;51.688;7.130;2023-08-08T14:21:44;2.60;;;1.30;;
15616;SDS011;7908;51.688;7.130;2023-08-08T14:24:27;2.95;;;1.52;;
15616;SDS011;7908;51.688;7.130;2023-08-08T14:26:59;2.60;;;1.50;;
15616;SDS011;7908;51.688;7.130;2023-08-08T14:29:47;2.53;;;1.20;;
15616;SDS011;7908;51.688;7.130;2023-08-08T14:32:26;1.83;;;1.25;;
15616;SDS011;7908;51.688;7.130;2023-08-08T14:35:03;9.43;;;1.40;;
15616;SDS011;7908;51.688;7.130;2023-08-08T14:37:35;3.33;;;1.00;;
15616;SDS011;7908;51.688;7.130;2023-08-08T14:40:11;2.05;;;1.15;;
15616;SDS011;7908;51.688;7.130;2023-08-08T14:42:43;2.38;;;0.90;;
15616;SDS011;7908;51.688;7.130;2023-08-08T14:45:14;3.28;;;1.02;;
15616;SDS011;7908;51.688;7.130;2023-08-08T14:47:49;2.30;;;1.10;;
15616;SDS011;7908;51.688;7.130;2023-08-08T14:50:23;2.60;;;1.25;;
15616;SDS011;7908;51.688;7.130;2023-08-08T14:52:53;3.08;;;1.23;;
15616;SDS011;7908;51.688;7.130;2023-08-08T14:55:23;2.95;;;1.20;;
15616;SDS011;7908;51.688;7.130;2023-08-08T14:58:06;2.95;;;1.10;;
15616;SDS011;7908;51.688;7.130;2023-08-08T15:00:48;1.83;;;1.10;;
15616;SDS011;7908;51.688;7.130;2023-08-08T15:03:23;2.97;;;1.05;;
15616;SDS011;7908;51.688;7.130;2023-08-08T15:05:58;3.05;;;1.00;;
15616;SDS011;7908;51.688;7.130;2023-08-08T15:08:35;2.38;;;0.93;;
15616;SDS011;7908;51.688;7.130;2023-08-08T15:11:09;3.67;;;1.00;;
15616;SDS011;7908;51.688;7.130;2023-08-08T15:13:50;1.83;;;0.90;;
15616;SDS011;7908;51.688;7.130;2023-08-08T15:16:20;2.25;;;0.98;;
15616;SDS011;7908;51.688;7.130;2023-08-08T15:19:02;2.67;;;1.23;;
15616;SDS011;7908;51.688;7.130;2023-08-08T15:21:37;4.63;;;1.08;;
15616;SDS011;7908;51.688;7.130;2023-08-08T15:24:12;2.60;;;1.00;;
15616;SDS011;7908;51.688;7.130;2023-08-08T15:26:48;2.80;;;1.25;;
15616;SDS011;7908;51.688;7.130;2023-08-08T15:29:25;2.53;;;1.00;;
15616;SDS011;7908;51.688;7.130;2023-08-08T15:31:58;2.25;;;1.05;;
15616;SDS011;7908;51.688;7.130;2023-08-08T15:34:28;2.72;;;0.73;;